CPR2 weather

Ottawa / Embrun Airport
Embrun, Ontario, Canada

Public forecast

Using degrees Celsius for public forecast. Weather courtesy of forecast.io.

METAR (pilot weather report)

Closest report is Ottawa Macdonald-Cartier International Airport, 16.4 nm (30.4 km) WNW. Retrieved 2019/04/24 17:00 UTC (44 minutes ago):

CYOW 241700Z 28015KT 15SM SCT010 OVC017 06/03 A2980 RMK SC3SC5 SLP096

TAF (pilot weather forecast)

Closest forecast is Ottawa Macdonald-Cartier International Airport, 16.4 nm (30.4 km) WNW. Retrieved 2019/04/24 15:42 UTC (2 hours ago):

TAF CYOW 241438Z 2415/2512 28015G25KT P6SM SCT008 OVC015 TEMPO 2415/2417 P6SM -DZ -RA OVC008 FM241800 31015G25KT P6SM OVC020 TEMPO 2418/2503 OVC025 BECMG 2420/2422 32012KT FM250300 34005KT P6SM OVC020 TEMPO 2503/2508 BKN025 FM250800 VRB03KT P6SM BKN025 BECMG 2511/2512 09006KT RMK NXT FCST BY 241800Z